Time;durP1;ratioP1;P1;durP2;ratioP2;P2;SDS_P1;SDS_P2;PMS_P1;PMS_P2;Temp;Humidity;BMP_temperature;BMP_pressure;BME280_temperature;BME280_humidity;BME280_pressure;Samples;Min_cycle;Max_cycle;Signal;HPM_P1;HPM_P2
2021/10/13 00:02:12;;;;;;;;;;;25.50;47.60;;;;;;5107146;28;19909;-80
2021/10/13 00:04:37;;;;;;;;;;;25.60;47.60;;;;;;5108150;28;20038;-80
2021/10/13 00:07:05;;;;;;;;;;;25.60;47.60;;;;;;5107872;28;19945;-81
2021/10/13 00:09:31;;;;;;;;;;;25.50;47.50;;;;;;5073940;28;19909;-79
2021/10/13 00:11:59;;;;;;;;;;;25.60;47.60;;;;;;5107890;28;19977;-83
2021/10/13 00:14:24;;;;;;;;;;;25.50;47.60;;;;;;5110080;28;19922;-79
2021/10/13 00:17:02;;;;;;;;;;;25.50;47.60;;;;;;5095219;28;20011;-80
2021/10/13 00:19:28;;;;;;;;;;;25.50;47.70;;;;;;5093205;28;19975;-83
2021/10/13 00:21:53;;;;;;;;;;;25.50;47.70;;;;;;5111723;28;19920;-79
2021/10/13 00:24:19;;;;;;;;;;;25.50;47.70;;;;;;5111673;28;20253;-82
2021/10/13 00:26:47;;;;;;;;;;;25.50;47.70;;;;;;5111768;28;19908;-83
2021/10/13 00:29:12;;;;;;;;;;;25.50;47.70;;;;;;5078059;28;19909;-80
2021/10/13 00:31:38;;;;;;;;;;;25.50;47.60;;;;;;5094562;28;19995;-83
2021/10/13 00:34:03;;;;;;;;;;;25.50;47.70;;;;;;5094510;28;20412;-79
2021/10/13 00:36:29;;;;;;;;;;;25.50;47.70;;;;;;5094185;28;19946;-80
2021/10/13 00:38:54;;;;;;;;;;;25.50;47.60;;;;;;5124562;27;19962;-82
2021/10/13 00:41:20;;;;;;;;;;;25.50;47.60;;;;;;5097697;28;19912;-82
2021/10/13 00:43:45;;;;;;;;;;;25.50;47.60;;;;;;5097700;28;19919;-79
2021/10/13 00:46:13;;;;;;;;;;;25.50;47.50;;;;;;5114870;28;19915;-81
2021/10/13 00:48:41;;;;;;;;;;;25.50;47.60;;;;;;5097524;28;19909;-84
2021/10/13 00:51:07;;;;;;;;;;;25.50;47.50;;;;;;5131394;27;20292;-84
2021/10/13 00:53:33;;;;;;;;;;;25.50;47.50;;;;;;5131696;27;20337;-81
2021/10/13 00:55:59;;;;;;;;;;;25.50;47.50;;;;;;5131759;27;19919;-81
2021/10/13 00:58:29;;;;;;;;;;;25.50;47.60;;;;;;5114358;28;19912;-82
2021/10/13 01:01:01;;;;;;;;;;;25.50;47.60;;;;;;5098503;28;19991;-79
2021/10/13 01:03:42;;;;;;;;;;;25.50;47.60;;;;;;5114731;28;19947;-81
2021/10/13 01:06:16;;;;;;;;;;;25.40;47.70;;;;;;5097565;28;20388;-83
2021/10/13 01:09:01;;;;;;;;;;;25.40;47.60;;;;;;5130949;27;20261;-84
2021/10/13 01:11:59;;;;;;;;;;;25.50;47.70;;;;;;5131118;27;19908;-82
2021/10/13 01:14:26;;;;;;;;;;;25.40;47.60;;;;;;5074730;28;20295;-82
2021/10/13 01:17:11;;;;;;;;;;;25.40;47.60;;;;;;5097811;28;19919;-83
2021/10/13 01:19:40;;;;;;;;;;;25.40;47.60;;;;;;5097133;28;19908;-81
2021/10/13 01:22:07;;;;;;;;;;;25.40;47.60;;;;;;5096870;28;19915;-81
2021/10/13 01:24:36;;;;;;;;;;;25.40;47.60;;;;;;5097696;28;19916;-82
2021/10/13 01:27:20;;;;;;;;;;;25.40;47.60;;;;;;5130442;27;19998;-83
2021/10/13 01:29:50;;;;;;;;;;;25.40;47.60;;;;;;5097756;28;19908;-82
2021/10/13 01:32:21;;;;;;;;;;;25.40;47.60;;;;;;5113445;28;19908;-80
2021/10/13 01:34:49;;;;;;;;;;;25.40;47.60;;;;;;5131076;27;19919;-81
2021/10/13 01:37:18;;;;;;;;;;;25.50;47.70;;;;;;5129987;27;19920;-81
2021/10/13 01:39:44;;;;;;;;;;;25.40;47.60;;;;;;5094010;28;20029;-83
2021/10/13 01:42:10;;;;;;;;;;;25.40;47.60;;;;;;5110175;28;19917;-81
2021/10/13 01:44:35;;;;;;;;;;;25.40;47.60;;;;;;5093013;28;19908;-81
2021/10/13 01:47:03;;;;;;;;;;;25.40;47.60;;;;;;5093622;28;20317;-80
2021/10/13 01:49:35;;;;;;;;;;;25.40;47.60;;;;;;5109471;28;19999;-84
2021/10/13 01:52:00;;;;;;;;;;;25.40;47.60;;;;;;5110317;28;19952;-80
2021/10/13 01:54:26;;;;;;;;;;;25.40;47.60;;;;;;5093116;28;20238;-81
2021/10/13 01:56:52;;;;;;;;;;;25.40;47.60;;;;;;5092733;28;19970;-81
2021/10/13 01:59:19;;;;;;;;;;;25.40;47.50;;;;;;5076752;28;19920;-81
2021/10/13 02:01:44;;;;;;;;;;;25.40;47.60;;;;;;5110091;28;19927;-84
2021/10/13 02:04:10;;;;;;;;;;;25.40;47.60;;;;;;5093014;28;19909;-82
2021/10/13 02:06:36;;;;;;;;;;;25.40;47.60;;;;;;5109892;28;19909;-81
2021/10/13 02:09:02;;;;;;;;;;;25.40;47.60;;;;;;5109751;28;20250;-82
2021/10/13 02:11:28;;;;;;;;;;;25.40;47.60;;;;;;5110015;28;19924;-80
2021/10/13 02:14:03;;;;;;;;;;;25.40;47.60;;;;;;5093124;28;19919;-81
2021/10/13 02:16:28;;;;;;;;;;;25.40;47.60;;;;;;5109813;28;19919;-79
2021/10/13 02:18:56;;;;;;;;;;;25.40;47.70;;;;;;5110012;28;20349;-79
2021/10/13 02:21:24;;;;;;;;;;;25.40;47.60;;;;;;5109295;28;19912;-81
2021/10/13 02:23:49;;;;;;;;;;;25.40;47.60;;;;;;5109053;28;20333;-84
2021/10/13 02:26:21;;;;;;;;;;;25.40;47.60;;;;;;5092557;28;19919;-81
2021/10/13 02:28:50;;;;;;;;;;;25.40;47.50;;;;;;5109503;28;19954;-82
2021/10/13 02:31:16;;;;;;;;;;;25.40;47.60;;;;;;5092118;28;19954;-84
2021/10/13 02:33:44;;;;;;;;;;;25.40;47.60;;;;;;5109538;28;19912;-81
2021/10/13 02:36:09;;;;;;;;;;;25.40;47.60;;;;;;5091550;28;19999;-80
2021/10/13 02:38:35;;;;;;;;;;;25.40;47.60;;;;;;5084284;28;19951;-81
2021/10/13 02:41:00;;;;;;;;;;;25.40;47.70;;;;;;5095378;28;20342;-84
2021/10/13 02:43:26;;;;;;;;;;;25.40;47.60;;;;;;5112862;28;19908;-82
2021/10/13 02:46:13;;;;;;;;;;;25.40;47.60;;;;;;5129531;27;20257;-82
2021/10/13 02:48:38;;;;;;;;;;;25.40;47.60;;;;;;5129506;27;20222;-81
2021/10/13 02:51:15;;;;;;;;;;;25.40;47.60;;;;;;5112094;28;19909;-82
2021/10/13 02:53:48;;;;;;;;;;;25.40;47.60;;;;;;5112668;28;19908;-82
2021/10/13 02:56:14;;;;;;;;;;;25.40;47.60;;;;;;5136982;27;19908;-81
2021/10/13 02:58:48;;;;;;;;;;;25.40;47.60;;;;;;5115506;28;19912;-80
2021/10/13 03:01:17;;;;;;;;;;;25.40;47.60;;;;;;5115662;28;20237;-80
2021/10/13 03:03:50;;;;;;;;;;;25.40;47.60;;;;;;5098990;28;19907;-84
2021/10/13 03:06:15;;;;;;;;;;;25.40;47.60;;;;;;5098604;28;19982;-83
2021/10/13 03:08:41;;;;;;;;;;;25.40;47.60;;;;;;5098201;28;19946;-84
2021/10/13 03:11:09;;;;;;;;;;;25.40;47.60;;;;;;5098296;28;19911;-82
2021/10/13 03:13:38;;;;;;;;;;;25.40;47.60;;;;;;5098990;28;19947;-80
2021/10/13 03:16:04;;;;;;;;;;;25.40;47.60;;;;;;5115453;28;19907;-79
2021/10/13 03:18:32;;;;;;;;;;;25.40;47.50;;;;;;5098305;28;20333;-82
2021/10/13 03:20:57;;;;;;;;;;;25.40;47.50;;;;;;5115255;28;19912;-81
2021/10/13 03:23:23;;;;;;;;;;;25.40;47.60;;;;;;5115078;28;20014;-78
2021/10/13 03:25:51;;;;;;;;;;;25.40;47.50;;;;;;5079630;28;19908;-80
2021/10/13 03:28:19;;;;;;;;;;;25.50;47.50;;;;;;5107546;28;19908;-79
2021/10/13 03:30:45;;;;;;;;;;;25.50;47.50;;;;;;5091432;28;20324;-79
2021/10/13 03:33:18;;;;;;;;;;;25.50;47.50;;;;;;5108174;28;19962;-80
2021/10/13 03:35:46;;;;;;;;;;;25.50;47.40;;;;;;5090958;28;20376;-80
2021/10/13 03:38:12;;;;;;;;;;;25.50;47.40;;;;;;5091203;28;19964;-81
2021/10/13 03:40:39;;;;;;;;;;;25.50;47.40;;;;;;5075106;28;20345;-82
2021/10/13 03:43:05;;;;;;;;;;;25.50;47.40;;;;;;5075392;28;19909;-80
2021/10/13 03:45:30;;;;;;;;;;;25.50;47.40;;;;;;5108023;28;20447;-82
2021/10/13 03:47:56;;;;;;;;;;;25.50;47.40;;;;;;5108058;28;20360;-81
2021/10/13 03:50:21;;;;;;;;;;;25.50;47.40;;;;;;5108060;28;19952;-81
2021/10/13 03:52:51;;;;;;;;;;;25.50;47.40;;;;;;5108374;28;19919;-80
2021/10/13 03:55:17;;;;;;;;;;;25.50;47.40;;;;;;5107796;28;19916;-82
2021/10/13 03:57:45;;;;;;;;;;;25.50;47.40;;;;;;5148504;27;19912;-80
2021/10/13 04:00:13;;;;;;;;;;;25.50;47.30;;;;;;5115001;28;20002;-81
2021/10/13 04:02:38;;;;;;;;;;;25.50;47.40;;;;;;5097867;28;19908;-80
2021/10/13 04:05:07;;;;;;;;;;;25.50;47.30;;;;;;5114797;28;19918;-78
2021/10/13 04:07:32;;;;;;;;;;;25.50;47.40;;;;;;5097882;28;19937;-82
2021/10/13 04:10:03;;;;;;;;;;;25.50;47.40;;;;;;5115195;28;19912;-81
2021/10/13 04:12:29;;;;;;;;;;;25.50;47.40;;;;;;5115551;28;19915;-80
2021/10/13 04:14:55;;;;;;;;;;;25.50;47.30;;;;;;5114844;28;19960;-80
2021/10/13 04:17:20;;;;;;;;;;;25.50;47.30;;;;;;5097764;28;20006;-81
2021/10/13 04:19:46;;;;;;;;;;;25.50;47.30;;;;;;5102301;28;19966;-85
2021/10/13 04:22:11;;;;;;;;;;;25.50;47.30;;;;;;5104767;28;20007;-80
2021/10/13 04:24:37;;;;;;;;;;;25.50;47.30;;;;;;5104756;28;19915;-79
2021/10/13 04:27:02;;;;;;;;;;;25.50;47.30;;;;;;5103022;28;20336;-81
2021/10/13 04:29:28;;;;;;;;;;;25.50;47.30;;;;;;5115521;28;19923;-80
2021/10/13 04:31:53;;;;;;;;;;;25.50;47.30;;;;;;5114799;28;19959;-82
2021/10/13 04:34:21;;;;;;;;;;;25.50;47.30;;;;;;5097597;28;19908;-82
2021/10/13 04:36:49;;;;;;;;;;;25.50;47.30;;;;;;5114453;28;19930;-84
2021/10/13 04:39:15;;;;;;;;;;;25.50;47.30;;;;;;5078786;28;20393;-80
2021/10/13 04:41:45;;;;;;;;;;;25.50;47.30;;;;;;5090852;28;19967;-80
2021/10/13 04:44:10;;;;;;;;;;;25.50;47.30;;;;;;5090713;28;20349;-84
2021/10/13 04:46:36;;;;;;;;;;;25.50;47.30;;;;;;5107829;28;19916;-80
2021/10/13 04:49:02;;;;;;;;;;;25.60;47.30;;;;;;5107412;28;19909;-80
2021/10/13 04:51:27;;;;;;;;;;;25.50;47.30;;;;;;5107775;28;19924;-82
2021/10/13 04:53:55;;;;;;;;;;;25.50;47.30;;;;;;5107627;28;19909;-80
2021/10/13 04:56:21;;;;;;;;;;;25.50;47.30;;;;;;5107828;28;19934;-80
2021/10/13 04:58:46;;;;;;;;;;;25.50;47.30;;;;;;5107769;28;20362;-82
2021/10/13 05:01:11;;;;;;;;;;;25.50;47.30;;;;;;5109589;28;19908;-83
2021/10/13 05:03:40;;;;;;;;;;;25.50;47.30;;;;;;5111430;28;20311;-73
2021/10/13 05:06:05;;;;;;;;;;;25.30;41.70;;;;;;5111007;28;20311;-78
2021/10/13 05:08:31;;;;;;;;;;;24.80;40.80;;;;;;5111049;28;19944;-82
2021/10/13 05:10:59;;;;;;;;;;;24.60;43.50;;;;;;5111111;28;19995;-84
2021/10/13 05:13:24;;;;;;;;;;;24.70;45.30;;;;;;5111183;28;19909;-80
2021/10/13 05:15:50;;;;;;;;;;;24.80;45.20;;;;;;5111083;28;19908;-80
2021/10/13 05:18:15;;;;;;;;;;;24.90;45.20;;;;;;5110549;28;19913;-80
2021/10/13 05:20:44;;;;;;;;;;;25.00;45.20;;;;;;5077578;28;19909;-81
2021/10/13 05:23:10;;;;;;;;;;;25.10;45.30;;;;;;5093420;28;19908;-84
2021/10/13 05:25:38;;;;;;;;;;;25.10;45.30;;;;;;5077003;28;19982;-80
2021/10/13 05:28:03;;;;;;;;;;;25.20;45.50;;;;;;5110474;28;19908;-83
2021/10/13 05:30:29;;;;;;;;;;;25.20;45.70;;;;;;5110406;28;19970;-82
2021/10/13 05:32:57;;;;;;;;;;;25.20;45.80;;;;;;5110213;28;19909;-84
2021/10/13 05:35:22;;;;;;;;;;;25.20;46.10;;;;;;5109849;28;20003;-83
2021/10/13 05:37:52;;;;;;;;;;;25.30;46.20;;;;;;5077290;28;20051;-81
2021/10/13 05:40:18;;;;;;;;;;;25.30;46.30;;;;;;5110075;28;19912;-81
2021/10/13 05:42:43;;;;;;;;;;;25.30;46.20;;;;;;5093932;28;20416;-82
2021/10/13 05:45:11;;;;;;;;;;;25.20;46.40;;;;;;5093969;28;19918;-79
2021/10/13 05:47:39;;;;;;;;;;;25.20;46.40;;;;;;5078468;28;19928;-79
2021/10/13 05:50:05;;;;;;;;;;;25.20;46.40;;;;;;5110717;28;20027;-81
2021/10/13 05:52:30;;;;;;;;;;;25.20;46.40;;;;;;5110113;28;19948;-79
2021/10/13 05:54:56;;;;;;;;;;;25.20;46.30;;;;;;5093140;28;19909;-80
2021/10/13 05:57:24;;;;;;;;;;;25.30;46.40;;;;;;5144530;27;19956;-80
2021/10/13 05:59:58;;;;;;;;;;;25.30;46.50;;;;;;5099842;28;19908;-80
2021/10/13 06:02:27;;;;;;;;;;;25.30;47.10;;;;;;5118133;28;19908;-82
2021/10/13 06:04:52;;;;;;;;;;;25.30;47.10;;;;;;5102194;28;19908;-82
2021/10/13 06:07:18;;;;;;;;;;;25.30;47.00;;;;;;5118912;28;19918;-79
2021/10/13 06:09:46;;;;;;;;;;;25.30;47.00;;;;;;5117194;28;19908;-79
2021/10/13 06:12:11;;;;;;;;;;;25.30;47.00;;;;;;5117303;28;19908;-82
2021/10/13 06:14:39;;;;;;;;;;;25.30;47.30;;;;;;5119988;28;19935;-82
2021/10/13 06:17:06;;;;;;;;;;;25.30;52.50;;;;;;5119663;28;20352;-80
2021/10/13 06:19:32;;;;;;;;;;;25.40;54.00;;;;;;5103140;28;20365;-80
2021/10/13 06:21:59;;;;;;;;;;;25.40;54.30;;;;;;5120491;28;19916;-79
2021/10/13 06:24:25;;;;;;;;;;;25.40;54.20;;;;;;5121460;28;19911;-79
2021/10/13 06:26:53;;;;;;;;;;;25.40;54.40;;;;;;5116908;28;20014;-80
2021/10/13 06:29:18;;;;;;;;;;;25.40;54.40;;;;;;5099030;28;19911;-80
2021/10/13 06:31:44;;;;;;;;;;;25.40;53.60;;;;;;5099945;28;19916;-77
2021/10/13 06:34:09;;;;;;;;;;;25.40;53.00;;;;;;5122775;28;19969;-78
2021/10/13 06:36:36;;;;;;;;;;;25.40;53.40;;;;;;5125161;28;19978;-78
2021/10/13 06:39:01;;;;;;;;;;;25.50;53.20;;;;;;5126407;28;19908;-78
2021/10/13 06:41:29;;;;;;;;;;;25.50;53.20;;;;;;5126846;28;19934;-81
2021/10/13 06:43:55;;;;;;;;;;;25.60;53.20;;;;;;5125934;28;19907;-76
2021/10/13 06:46:22;;;;;;;;;;;25.60;53.20;;;;;;5127137;28;19919;-77
2021/10/13 06:48:48;;;;;;;;;;;25.60;52.90;;;;;;5103127;28;19915;-77
2021/10/13 06:51:14;;;;;;;;;;;25.70;52.90;;;;;;5115740;28;19908;-77
2021/10/13 06:53:41;;;;;;;;;;;25.70;52.80;;;;;;5115763;28;19908;-80
2021/10/13 06:56:07;;;;;;;;;;;25.70;52.60;;;;;;5115704;28;20260;-79
2021/10/13 06:58:32;;;;;;;;;;;25.70;52.40;;;;;;5115352;28;19912;-80
2021/10/13 07:01:00;;;;;;;;;;;25.80;52.40;;;;;;5115105;28;19972;-78
2021/10/13 07:03:26;;;;;;;;;;;25.80;52.30;;;;;;5115067;28;19908;-79
2021/10/13 07:05:51;;;;;;;;;;;25.80;52.20;;;;;;5098337;28;19938;-79
2021/10/13 07:08:17;;;;;;;;;;;25.80;52.10;;;;;;5097900;28;20252;-77
2021/10/13 07:10:42;;;;;;;;;;;25.80;52.00;;;;;;5114899;28;19967;-77
2021/10/13 07:13:10;;;;;;;;;;;25.80;51.80;;;;;;5115583;28;19919;-78
2021/10/13 07:15:38;;;;;;;;;;;25.90;51.70;;;;;;5115152;28;20336;-77
2021/10/13 07:18:04;;;;;;;;;;;25.90;51.50;;;;;;5115458;28;19916;-77
2021/10/13 07:20:29;;;;;;;;;;;25.90;51.30;;;;;;5116305;28;19912;-80
2021/10/13 07:22:57;;;;;;;;;;;25.90;51.20;;;;;;5097964;28;19908;-77
2021/10/13 07:25:27;;;;;;;;;;;25.90;51.10;;;;;;5115173;28;19907;-76
2021/10/13 07:27:52;;;;;;;;;;;26.00;51.00;;;;;;5115016;28;19958;-78
2021/10/13 07:30:19;;;;;;;;;;;26.00;50.90;;;;;;5114856;28;19911;-78
2021/10/13 07:32:46;;;;;;;;;;;26.00;50.80;;;;;;5114823;28;19912;-79
2021/10/13 07:35:13;;;;;;;;;;;26.00;50.70;;;;;;5115369;28;19911;-78
2021/10/13 07:37:38;;;;;;;;;;;26.00;50.60;;;;;;5097794;28;20337;-76
2021/10/13 07:40:04;;;;;;;;;;;26.00;50.60;;;;;;5115504;28;19976;-77
2021/10/13 07:42:35;;;;;;;;;;;26.00;50.50;;;;;;5114803;28;20256;-80
2021/10/13 07:45:02;;;;;;;;;;;26.00;50.30;;;;;;5114724;28;20010;-76
2021/10/13 07:47:30;;;;;;;;;;;26.00;50.30;;;;;;5114615;28;19911;-78
2021/10/13 07:49:56;;;;;;;;;;;26.10;50.30;;;;;;5115712;28;20351;-79
2021/10/13 07:52:22;;;;;;;;;;;26.10;50.30;;;;;;5114737;28;19908;-77
2021/10/13 07:54:47;;;;;;;;;;;26.10;50.20;;;;;;5114899;28;19916;-77
2021/10/13 07:57:13;;;;;;;;;;;26.10;50.10;;;;;;5098248;28;20021;-79
2021/10/13 07:59:38;;;;;;;;;;;26.10;50.00;;;;;;5094060;28;20014;-78
2021/10/13 08:02:04;;;;;;;;;;;26.10;50.00;;;;;;5078305;28;19908;-79
2021/10/13 08:04:30;;;;;;;;;;;26.10;49.80;;;;;;5094943;28;19915;-77
2021/10/13 08:06:55;;;;;;;;;;;26.10;49.80;;;;;;5094343;28;20282;-78
2021/10/13 08:09:25;;;;;;;;;;;26.10;49.70;;;;;;5094905;28;19915;-79
2021/10/13 08:11:53;;;;;;;;;;;26.10;49.60;;;;;;5094952;28;19908;-80
2021/10/13 08:14:18;;;;;;;;;;;26.20;49.50;;;;;;5095065;28;19922;-76
2021/10/13 08:16:44;;;;;;;;;;;26.20;49.40;;;;;;5093581;28;20010;-77
2021/10/13 08:19:12;;;;;;;;;;;26.20;49.30;;;;;;5077142;28;19908;-76
2021/10/13 08:21:37;;;;;;;;;;;26.20;49.30;;;;;;5094960;28;19912;-75
2021/10/13 08:24:05;;;;;;;;;;;26.20;49.50;;;;;;5095018;28;20003;-76
2021/10/13 08:26:31;;;;;;;;;;;26.30;49.50;;;;;;5094714;28;19908;-81
2021/10/13 08:28:57;;;;;;;;;;;26.30;49.40;;;;;;5076781;28;19964;-78
2021/10/13 08:31:23;;;;;;;;;;;26.30;49.30;;;;;;5093878;28;20056;-79
2021/10/13 08:33:49;;;;;;;;;;;26.30;49.30;;;;;;5076721;28;19915;-78
2021/10/13 08:36:14;;;;;;;;;;;26.50;49.20;;;;;;5078560;28;19955;-81
2021/10/13 08:38:42;;;;;;;;;;;26.50;49.00;;;;;;5080337;28;20016;-77
2021/10/13 08:41:08;;;;;;;;;;;26.60;49.00;;;;;;5097479;28;19922;-78
2021/10/13 08:43:33;;;;;;;;;;;26.60;48.90;;;;;;5097730;28;19908;-79
2021/10/13 08:45:59;;;;;;;;;;;26.70;48.70;;;;;;5097579;28;20004;-81
2021/10/13 08:48:24;;;;;;;;;;;26.70;48.50;;;;;;5098263;28;19999;-80
2021/10/13 08:50:50;;;;;;;;;;;26.70;48.40;;;;;;5097731;28;19947;-81
2021/10/13 08:53:24;;;;;;;;;;;26.70;48.30;;;;;;5098204;28;19908;-78
2021/10/13 08:55:50;;;;;;;;;;;26.80;48.40;;;;;;5097239;28;20340;-79
2021/10/13 08:58:24;;;;;;;;;;;26.80;48.20;;;;;;5096976;28;20011;-77
2021/10/13 09:01:05;;;;;;;;;;;26.80;48.10;;;;;;5096960;28;19916;-82
2021/10/13 09:03:31;;;;;;;;;;;26.90;48.10;;;;;;5097879;28;19936;-81
2021/10/13 09:05:57;;;;;;;;;;;26.90;48.10;;;;;;5096953;28;19912;-82
2021/10/13 09:08:24;;;;;;;;;;;27.00;47.90;;;;;;5097657;28;19969;-78
2021/10/13 09:10:53;;;;;;;;;;;27.00;47.70;;;;;;5097949;28;20053;-76
2021/10/13 09:13:21;;;;;;;;;;;27.00;47.60;;;;;;5096751;28;19965;-77
2021/10/13 09:15:48;;;;;;;;;;;27.10;47.30;;;;;;5079878;28;19966;-77
2021/10/13 09:18:14;;;;;;;;;;;27.10;47.00;;;;;;5097582;28;19921;-78
2021/10/13 09:20:42;;;;;;;;;;;27.20;47.10;;;;;;5096671;28;19915;-76
2021/10/13 09:23:15;;;;;;;;;;;27.20;46.80;;;;;;5097524;28;19923;-77
2021/10/13 09:26:01;;;;;;;;;;;27.30;46.70;;;;;;5097400;28;19919;-80
2021/10/13 09:28:29;;;;;;;;;;;27.20;46.70;;;;;;5079983;28;19908;-77
2021/10/13 09:30:54;;;;;;;;;;;27.20;46.60;;;;;;5097477;28;19908;-77
2021/10/13 09:33:20;;;;;;;;;;;27.20;46.50;;;;;;5097326;28;19965;-78
2021/10/13 09:35:48;;;;;;;;;;;27.20;46.60;;;;;;5079284;28;19927;-79
2021/10/13 09:38:17;;;;;;;;;;;27.20;46.60;;;;;;5079568;28;19916;-77
2021/10/13 09:40:42;;;;;;;;;;;27.30;46.70;;;;;;5079318;28;19916;-76
2021/10/13 09:43:25;;;;;;;;;;;27.20;46.70;;;;;;5096249;28;19934;-79
2021/10/13 09:45:51;;;;;;;;;;;27.10;46.90;;;;;;5095857;28;20003;-76
2021/10/13 09:48:21;;;;;;;;;;;27.10;47.20;;;;;;5078700;28;19919;-76
2021/10/13 09:50:47;;;;;;;;;;;27.10;47.30;;;;;;5095783;28;19908;-76
2021/10/13 09:53:16;;;;;;;;;;;27.10;47.30;;;;;;5096144;28;19908;-76
2021/10/13 09:55:44;;;;;;;;;;;27.10;47.40;;;;;;5096648;28;19952;-78
2021/10/13 09:58:25;;;;;;;;;;;27.20;47.40;;;;;;5096546;28;20329;-75
2021/10/13 10:01:11;;;;;;;;;;;27.20;47.40;;;;;;5095619;28;19908;-77
2021/10/13 10:03:40;;;;;;;;;;;27.20;47.30;;;;;;5096343;28;19957;-78
2021/10/13 10:06:09;;;;;;;;;;;27.10;44.90;;;;;;5095688;28;19908;-79
2021/10/13 10:08:53;;;;;;;;;;;26.80;38.50;;;;;;5096631;28;19944;-79
2021/10/13 10:11:31;;;;;;;;;;;26.60;39.60;;;;;;5096301;28;19974;-77
2021/10/13 10:13:57;;;;;;;;;;;26.70;42.00;;;;;;5095451;28;19942;-78
2021/10/13 10:16:29;;;;;;;;;;;26.70;43.10;;;;;;5095078;28;19918;-76
2021/10/13 10:19:12;;;;;;;;;;;26.80;43.60;;;;;;5094550;28;19926;-80
2021/10/13 10:21:41;;;;;;;;;;;26.90;43.80;;;;;;5078433;28;19981;-80
2021/10/13 10:24:22;;;;;;;;;;;27.00;43.70;;;;;;5095581;28;19908;-80
2021/10/13 10:26:47;;;;;;;;;;;27.20;43.50;;;;;;5096481;28;19908;-80
2021/10/13 10:29:18;;;;;;;;;;;27.30;43.20;;;;;;5079169;28;20295;-80
2021/10/13 10:31:56;;;;;;;;;;;27.40;42.90;;;;;;5095619;28;19908;-79
2021/10/13 10:34:22;;;;;;;;;;;27.50;43.00;;;;;;5096060;28;19934;-82
2021/10/13 10:36:48;;;;;;;;;;;27.60;42.90;;;;;;5095757;28;19916;-78
2021/10/13 10:39:16;;;;;;;;;;;27.60;42.80;;;;;;5096538;28;19919;-77
2021/10/13 10:41:41;;;;;;;;;;;27.70;42.70;;;;;;5078497;28;20317;-79
2021/10/13 10:44:25;;;;;;;;;;;27.80;42.70;;;;;;5095862;28;19915;-79
2021/10/13 10:47:01;;;;;;;;;;;27.80;42.60;;;;;;5095870;28;19908;-77
2021/10/13 10:49:55;;;;;;;;;;;27.90;42.40;;;;;;5094881;28;19908;-78
2021/10/13 10:52:24;;;;;;;;;;;27.90;42.40;;;;;;5095935;28;19957;-81
2021/10/13 10:54:50;;;;;;;;;;;28.00;42.70;;;;;;5094785;28;19912;-84
2021/10/13 10:57:31;;;;;;;;;;;28.00;42.50;;;;;;5095910;28;20006;-80
2021/10/13 10:59:57;;;;;;;;;;;28.00;42.50;;;;;;5077713;28;20324;-81
2021/10/13 11:02:23;;;;;;;;;;;28.10;42.60;;;;;;5078532;28;19951;-82
2021/10/13 11:05:10;;;;;;;;;;;28.10;42.50;;;;;;5095171;28;19916;-85
2021/10/13 11:07:38;;;;;;;;;;;28.10;42.50;;;;;;5095605;28;19912;-85
2021/10/13 11:10:06;;;;;;;;;;;28.10;42.50;;;;;;5094630;28;19943;-81
2021/10/13 11:13:01;;;;;;;;;;;28.10;42.50;;;;;;5095425;28;19908;-80
2021/10/13 11:15:30;;;;;;;;;;;28.10;42.40;;;;;;5086440;28;20279;-84
2021/10/13 11:17:56;;;;;;;;;;;28.10;42.60;;;;;;5078091;28;19947;-80
2021/10/13 11:20:24;;;;;;;;;;;28.10;42.60;;;;;;5095404;28;20375;-78
2021/10/13 11:22:56;;;;;;;;;;;28.10;42.50;;;;;;5077560;28;20365;-77
2021/10/13 11:25:22;;;;;;;;;;;28.10;42.60;;;;;;5095383;28;19908;-81
2021/10/13 11:28:00;;;;;;;;;;;28.10;42.60;;;;;;5094640;28;19909;-79
2021/10/13 11:30:25;;;;;;;;;;;28.10;42.60;;;;;;5095101;28;19908;-82
2021/10/13 11:32:51;;;;;;;;;;;28.00;42.50;;;;;;5094203;28;20393;-79
2021/10/13 11:35:19;;;;;;;;;;;28.10;42.60;;;;;;5077423;28;19908;-79
2021/10/13 11:37:53;;;;;;;;;;;28.10;42.60;;;;;;5077156;28;20513;-77
2021/10/13 11:40:21;;;;;;;;;;;28.10;42.50;;;;;;5094155;28;20065;-76
2021/10/13 11:42:47;;;;;;;;;;;28.10;42.60;;;;;;5094852;28;19908;-78
2021/10/13 11:45:13;;;;;;;;;;;28.10;42.50;;;;;;5094030;28;19919;-78
2021/10/13 11:47:38;;;;;;;;;;;28.10;42.50;;;;;;5077364;28;19912;-78
2021/10/13 11:50:05;;;;;;;;;;;28.10;42.70;;;;;;5094805;28;20279;-74
2021/10/13 11:52:30;;;;;;;;;;;28.00;42.70;;;;;;5094804;28;19960;-77
2021/10/13 11:54:58;;;;;;;;;;;27.10;32.60;;;;;;5094118;28;19908;-76
2021/10/13 11:57:29;;;;;;;;;;;26.50;32.50;;;;;;5112240;28;20007;-78
2021/10/13 12:02:54;;;;;;;;;;;26.50;37.30;;;;;;5115726;28;19908;-79
2021/10/13 12:05:19;;;;;;;;;;;26.80;38.20;;;;;;5114658;28;19908;-78
2021/10/13 12:07:49;;;;;;;;;;;26.90;38.50;;;;;;5114590;28;19918;-80
2021/10/13 12:10:17;;;;;;;;;;;27.10;38.70;;;;;;5117413;28;19999;-82
2021/10/13 12:12:58;;;;;;;;;;;27.20;38.90;;;;;;5101506;28;19908;-76
2021/10/13 12:15:23;;;;;;;;;;;27.20;38.70;;;;;;5101842;28;19920;-82
2021/10/13 12:17:49;;;;;;;;;;;27.30;39.10;;;;;;5118362;28;20262;-79
2021/10/13 12:20:20;;;;;;;;;;;27.40;39.30;;;;;;5101116;28;19965;-81
2021/10/13 12:22:47;;;;;;;;;;;27.40;39.40;;;;;;5119225;28;20333;-79
2021/10/13 12:25:27;;;;;;;;;;;27.50;39.70;;;;;;5100888;28;19908;-81
2021/10/13 12:27:56;;;;;;;;;;;27.50;39.40;;;;;;5118900;28;19919;-80
2021/10/13 12:30:34;;;;;;;;;;;27.60;39.50;;;;;;5118188;28;19908;-77
2021/10/13 12:33:02;;;;;;;;;;;27.60;39.70;;;;;;5101391;28;20348;-77
2021/10/13 12:35:31;;;;;;;;;;;27.60;40.00;;;;;;5100583;28;19911;-78
2021/10/13 12:37:57;;;;;;;;;;;27.60;39.90;;;;;;5117744;28;20337;-78
2021/10/13 12:40:22;;;;;;;;;;;27.60;40.00;;;;;;5117683;28;19946;-80
2021/10/13 12:42:48;;;;;;;;;;;27.60;40.00;;;;;;5101189;28;19949;-78
2021/10/13 12:45:13;;;;;;;;;;;27.60;40.10;;;;;;5117864;28;20324;-83
2021/10/13 12:47:41;;;;;;;;;;;27.60;40.20;;;;;;5117919;28;19908;-79
2021/10/13 12:50:13;;;;;;;;;;;27.60;40.20;;;;;;5117948;28;19908;-77
2021/10/13 12:52:38;;;;;;;;;;;27.70;40.50;;;;;;5117580;28;20358;-81
2021/10/13 12:55:04;;;;;;;;;;;27.70;40.40;;;;;;5118717;28;19907;-78
2021/10/13 12:57:32;;;;;;;;;;;27.70;40.60;;;;;;5099657;28;19911;-77
2021/10/13 13:00:00;;;;;;;;;;;27.80;40.40;;;;;;5096830;28;19941;-81
2021/10/13 13:02:26;;;;;;;;;;;27.70;40.50;;;;;;5097483;28;20494;-79
2021/10/13 13:04:51;;;;;;;;;;;27.80;40.70;;;;;;5097900;28;19908;-79
2021/10/13 13:07:17;;;;;;;;;;;27.80;40.80;;;;;;5097711;28;19920;-82
2021/10/13 13:09:45;;;;;;;;;;;27.80;40.80;;;;;;5096688;28;19908;-76
2021/10/13 13:12:13;;;;;;;;;;;27.80;41.00;;;;;;5097603;28;19908;-77
2021/10/13 13:14:39;;;;;;;;;;;27.80;40.90;;;;;;5096729;28;19923;-80
2021/10/13 13:17:07;;;;;;;;;;;27.80;40.90;;;;;;5097499;28;19911;-78
2021/10/13 13:19:33;;;;;;;;;;;27.80;41.00;;;;;;5096910;28;19919;-79
2021/10/13 13:21:59;;;;;;;;;;;27.80;41.00;;;;;;5096092;28;19919;-78
2021/10/13 13:24:24;;;;;;;;;;;27.80;40.90;;;;;;5079831;28;19908;-79
2021/10/13 13:26:52;;;;;;;;;;;27.80;41.00;;;;;;5097317;28;19999;-79
2021/10/13 13:29:18;;;;;;;;;;;27.80;41.30;;;;;;5097218;28;20336;-76
2021/10/13 13:31:44;;;;;;;;;;;27.80;41.10;;;;;;5096435;28;19908;-77
2021/10/13 13:34:14;;;;;;;;;;;27.80;41.00;;;;;;5096878;28;19908;-79
2021/10/13 13:36:42;;;;;;;;;;;27.80;41.20;;;;;;5096188;28;19916;-76
2021/10/13 13:39:08;;;;;;;;;;;27.80;41.10;;;;;;5079875;28;19958;-81
2021/10/13 13:41:36;;;;;;;;;;;27.80;41.60;;;;;;5096197;28;20013;-77
2021/10/13 13:44:06;;;;;;;;;;;27.90;41.50;;;;;;5096137;28;20386;-75
2021/10/13 13:46:31;;;;;;;;;;;27.90;41.50;;;;;;5096454;28;20394;-80
2021/10/13 13:48:59;;;;;;;;;;;27.80;41.90;;;;;;5096090;28;19919;-79
2021/10/13 13:51:27;;;;;;;;;;;27.80;41.80;;;;;;5096458;28;19952;-78
2021/10/13 13:53:53;;;;;;;;;;;27.90;42.00;;;;;;5096227;28;19916;-81
2021/10/13 13:56:21;;;;;;;;;;;27.90;41.80;;;;;;5095955;28;19923;-80
2021/10/13 13:58:46;;;;;;;;;;;27.90;41.40;;;;;;5096817;28;20304;-77
2021/10/13 14:01:12;;;;;;;;;;;27.90;41.50;;;;;;5096976;28;20003;-79
2021/10/13 14:03:40;;;;;;;;;;;27.90;41.40;;;;;;5095533;28;19959;-78
2021/10/13 14:06:08;;;;;;;;;;;27.90;41.70;;;;;;5095942;28;19908;-77
2021/10/13 14:08:33;;;;;;;;;;;27.90;41.70;;;;;;5095897;28;19919;-77
2021/10/13 14:10:59;;;;;;;;;;;27.90;41.70;;;;;;5095776;28;19908;-77
2021/10/13 14:13:27;;;;;;;;;;;27.90;41.70;;;;;;5095771;28;19950;-77
2021/10/13 14:15:58;;;;;;;;;;;27.90;41.50;;;;;;5095342;28;20594;-79
2021/10/13 14:18:23;;;;;;;;;;;27.90;41.60;;;;;;5096647;28;19927;-78
2021/10/13 14:20:51;;;;;;;;;;;27.90;41.90;;;;;;5096927;28;20249;-77
2021/10/13 14:23:16;;;;;;;;;;;28.00;41.80;;;;;;5078727;28;20413;-81
2021/10/13 14:25:44;;;;;;;;;;;27.90;41.60;;;;;;5078538;28;19966;-80